sensor_id;sensor_type;location;lat;lon;timestamp;P1;durP1;ratioP1;P2;durP2;ratioP2
63394;SDS011;49531;-34.520;150.798;2022-10-16T00:01:17;3.35;;;0.90;;
63394;SDS011;49531;-34.520;150.798;2022-10-16T00:03:48;5.93;;;1.00;;
63394;SDS011;49531;-34.520;150.798;2022-10-16T00:06:16;3.42;;;0.90;;
63394;SDS011;49531;-34.520;150.798;2022-10-16T00:08:46;2.88;;;1.00;;
63394;SDS011;49531;-34.520;150.798;2022-10-16T00:11:15;4.72;;;0.95;;
63394;SDS011;49531;-34.520;150.798;2022-10-16T00:13:48;2.25;;;0.90;;
63394;SDS011;49531;-34.520;150.798;2022-10-16T00:16:17;2.60;;;0.90;;
63394;SDS011;49531;-34.520;150.798;2022-10-16T00:18:45;3.80;;;0.90;;
63394;SDS011;49531;-34.520;150.798;2022-10-16T00:21:14;2.60;;;0.90;;
63394;SDS011;49531;-34.520;150.798;2022-10-16T00:23:43;1.85;;;0.93;;
63394;SDS011;49531;-34.520;150.798;2022-10-16T00:26:12;3.80;;;1.20;;
63394;SDS011;49531;-34.520;150.798;2022-10-16T00:28:42;6.70;;;0.90;;
63394;SDS011;49531;-34.520;150.798;2022-10-16T00:31:11;3.47;;;1.10;;
63394;SDS011;49531;-34.520;150.798;2022-10-16T00:33:39;3.17;;;0.98;;
63394;SDS011;49531;-34.520;150.798;2022-10-16T00:36:07;2.05;;;1.00;;
63394;SDS011;49531;-34.520;150.798;2022-10-16T00:38:36;2.08;;;0.80;;
63394;SDS011;49531;-34.520;150.798;2022-10-16T00:41:04;3.28;;;1.00;;
63394;SDS011;49531;-34.520;150.798;2022-10-16T00:43:39;2.97;;;1.08;;
63394;SDS011;49531;-34.520;150.798;2022-10-16T00:46:17;2.10;;;0.90;;
63394;SDS011;49531;-34.520;150.798;2022-10-16T00:48:51;2.58;;;1.00;;
63394;SDS011;49531;-34.520;150.798;2022-10-16T00:51:28;2.20;;;0.80;;
63394;SDS011;49531;-34.520;150.798;2022-10-16T00:54:01;3.25;;;0.90;;
63394;SDS011;49531;-34.520;150.798;2022-10-16T00:56:30;2.65;;;0.80;;
63394;SDS011;49531;-34.520;150.798;2022-10-16T00:58:59;5.88;;;0.98;;
63394;SDS011;49531;-34.520;150.798;2022-10-16T01:01:32;2.17;;;1.02;;
63394;SDS011;49531;-34.520;150.798;2022-10-16T01:03:59;5.60;;;1.13;;
63394;SDS011;49531;-34.520;150.798;2022-10-16T01:09:30;3.15;;;0.90;;
63394;SDS011;49531;-34.520;150.798;2022-10-16T01:12:16;4.82;;;1.10;;
63394;SDS011;49531;-34.520;150.798;2022-10-16T01:15:02;5.55;;;1.15;;
63394;SDS011;49531;-34.520;150.798;2022-10-16T01:17:41;3.53;;;0.90;;
63394;SDS011;49531;-34.520;150.798;2022-10-16T01:20:28;3.60;;;0.80;;
63394;SDS011;49531;-34.520;150.798;2022-10-16T01:23:10;3.63;;;0.95;;
63394;SDS011;49531;-34.520;150.798;2022-10-16T01:26:09;2.97;;;0.73;;
63394;SDS011;49531;-34.520;150.798;2022-10-16T01:31:53;2.95;;;0.90;;
63394;SDS011;49531;-34.520;150.798;2022-10-16T01:34:28;2.85;;;1.00;;
63394;SDS011;49531;-34.520;150.798;2022-10-16T01:37:04;0.93;;;0.70;;
63394;SDS011;49531;-34.520;150.798;2022-10-16T01:39:38;3.05;;;0.82;;
63394;SDS011;49531;-34.520;150.798;2022-10-16T01:42:16;2.38;;;0.77;;
63394;SDS011;49531;-34.520;150.798;2022-10-16T01:44:50;2.53;;;0.80;;
63394;SDS011;49531;-34.520;150.798;2022-10-16T01:47:20;1.98;;;0.93;;
63394;SDS011;49531;-34.520;150.798;2022-10-16T01:49:52;4.38;;;0.90;;
63394;SDS011;49531;-34.520;150.798;2022-10-16T01:52:21;2.53;;;1.00;;
63394;SDS011;49531;-34.520;150.798;2022-10-16T01:54:52;4.97;;;0.90;;
63394;SDS011;49531;-34.520;150.798;2022-10-16T01:57:21;3.13;;;0.80;;
63394;SDS011;49531;-34.520;150.798;2022-10-16T01:59:52;2.20;;;0.80;;
63394;SDS011;49531;-34.520;150.798;2022-10-16T02:02:24;2.67;;;0.90;;
63394;SDS011;49531;-34.520;150.798;2022-10-16T02:04:57;1.73;;;0.90;;
63394;SDS011;49531;-34.520;150.798;2022-10-16T02:07:36;2.65;;;1.05;;
63394;SDS011;49531;-34.520;150.798;2022-10-16T02:10:04;2.65;;;0.90;;
63394;SDS011;49531;-34.520;150.798;2022-10-16T02:12:32;3.05;;;0.90;;
63394;SDS011;49531;-34.520;150.798;2022-10-16T02:15:05;3.40;;;0.95;;
63394;SDS011;49531;-34.520;150.798;2022-10-16T02:17:32;3.13;;;0.90;;
63394;SDS011;49531;-34.520;150.798;2022-10-16T02:20:00;3.67;;;1.10;;
63394;SDS011;49531;-34.520;150.798;2022-10-16T02:22:29;3.75;;;0.90;;
63394;SDS011;49531;-34.520;150.798;2022-10-16T02:25:03;3.45;;;1.20;;
63394;SDS011;49531;-34.520;150.798;2022-10-16T02:27:53;4.85;;;1.00;;
63394;SDS011;49531;-34.520;150.798;2022-10-16T02:30:32;3.28;;;0.85;;
63394;SDS011;49531;-34.520;150.798;2022-10-16T02:33:09;3.00;;;1.00;;
63394;SDS011;49531;-34.520;150.798;2022-10-16T02:35:39;3.10;;;1.00;;
63394;SDS011;49531;-34.520;150.798;2022-10-16T02:38:08;5.93;;;1.10;;
63394;SDS011;49531;-34.520;150.798;2022-10-16T02:40:36;7.13;;;0.98;;
63394;SDS011;49531;-34.520;150.798;2022-10-16T02:43:04;3.00;;;1.08;;
63394;SDS011;49531;-34.520;150.798;2022-10-16T02:45:32;2.58;;;0.90;;
63394;SDS011;49531;-34.520;150.798;2022-10-16T02:47:59;2.08;;;0.85;;
63394;SDS011;49531;-34.520;150.798;2022-10-16T02:50:27;4.97;;;1.00;;
63394;SDS011;49531;-34.520;150.798;2022-10-16T02:52:54;1.98;;;0.73;;
63394;SDS011;49531;-34.520;150.798;2022-10-16T02:55:21;2.10;;;0.73;;
63394;SDS011;49531;-34.520;150.798;2022-10-16T02:57:48;3.47;;;1.10;;
63394;SDS011;49531;-34.520;150.798;2022-10-16T03:00:16;2.85;;;0.93;;
63394;SDS011;49531;-34.520;150.798;2022-10-16T03:02:43;4.53;;;1.00;;
63394;SDS011;49531;-34.520;150.798;2022-10-16T03:05:10;2.78;;;0.90;;
63394;SDS011;49531;-34.520;150.798;2022-10-16T03:07:37;2.65;;;0.88;;
63394;SDS011;49531;-34.520;150.798;2022-10-16T03:10:05;1.52;;;0.75;;
63394;SDS011;49531;-34.520;150.798;2022-10-16T03:12:32;4.35;;;0.90;;
63394;SDS011;49531;-34.520;150.798;2022-10-16T03:15:00;2.65;;;0.90;;
63394;SDS011;49531;-34.520;150.798;2022-10-16T03:17:27;2.17;;;0.90;;
63394;SDS011;49531;-34.520;150.798;2022-10-16T03:19:54;2.55;;;1.10;;
63394;SDS011;49531;-34.520;150.798;2022-10-16T03:22:22;2.90;;;1.00;;
63394;SDS011;49531;-34.520;150.798;2022-10-16T03:24:49;1.60;;;0.82;;
63394;SDS011;49531;-34.520;150.798;2022-10-16T03:27:16;3.10;;;1.13;;
63394;SDS011;49531;-34.520;150.798;2022-10-16T03:29:43;2.13;;;0.90;;
63394;SDS011;49531;-34.520;150.798;2022-10-16T03:32:10;2.08;;;0.90;;
63394;SDS011;49531;-34.520;150.798;2022-10-16T03:34:37;2.40;;;0.90;;
63394;SDS011;49531;-34.520;150.798;2022-10-16T03:37:04;2.25;;;0.88;;
63394;SDS011;49531;-34.520;150.798;2022-10-16T03:39:31;3.67;;;1.00;;
63394;SDS011;49531;-34.520;150.798;2022-10-16T03:41:58;3.25;;;1.15;;
63394;SDS011;49531;-34.520;150.798;2022-10-16T03:44:25;4.13;;;0.90;;
63394;SDS011;49531;-34.520;150.798;2022-10-16T03:46:53;4.25;;;1.00;;
63394;SDS011;49531;-34.520;150.798;2022-10-16T03:49:20;3.15;;;0.82;;
63394;SDS011;49531;-34.520;150.798;2022-10-16T03:51:47;2.47;;;0.93;;
63394;SDS011;49531;-34.520;150.798;2022-10-16T03:54:14;7.28;;;1.10;;
63394;SDS011;49531;-34.520;150.798;2022-10-16T03:56:41;2.80;;;1.10;;
63394;SDS011;49531;-34.520;150.798;2022-10-16T03:59:08;4.60;;;0.90;;
63394;SDS011;49531;-34.520;150.798;2022-10-16T04:01:35;3.92;;;1.10;;
63394;SDS011;49531;-34.520;150.798;2022-10-16T04:04:02;6.68;;;1.02;;
63394;SDS011;49531;-34.520;150.798;2022-10-16T04:06:30;3.58;;;1.08;;
63394;SDS011;49531;-34.520;150.798;2022-10-16T04:08:57;5.15;;;1.30;;
63394;SDS011;49531;-34.520;150.798;2022-10-16T04:11:24;3.92;;;1.23;;
63394;SDS011;49531;-34.520;150.798;2022-10-16T04:13:51;4.60;;;1.20;;
63394;SDS011;49531;-34.520;150.798;2022-10-16T04:16:18;4.43;;;1.10;;
63394;SDS011;49531;-34.520;150.798;2022-10-16T04:18:46;9.15;;;1.08;;
63394;SDS011;49531;-34.520;150.798;2022-10-16T04:21:13;5.68;;;1.38;;
63394;SDS011;49531;-34.520;150.798;2022-10-16T04:23:40;4.15;;;0.98;;
63394;SDS011;49531;-34.520;150.798;2022-10-16T04:26:09;6.03;;;1.30;;
63394;SDS011;49531;-34.520;150.798;2022-10-16T04:28:36;2.95;;;0.95;;
63394;SDS011;49531;-34.520;150.798;2022-10-16T04:31:03;2.78;;;1.08;;
63394;SDS011;49531;-34.520;150.798;2022-10-16T04:33:31;3.58;;;1.02;;
63394;SDS011;49531;-34.520;150.798;2022-10-16T04:35:59;5.45;;;1.10;;
63394;SDS011;49531;-34.520;150.798;2022-10-16T04:38:27;4.85;;;1.05;;
63394;SDS011;49531;-34.520;150.798;2022-10-16T04:40:54;3.30;;;1.00;;
63394;SDS011;49531;-34.520;150.798;2022-10-16T04:43:21;4.65;;;1.33;;
63394;SDS011;49531;-34.520;150.798;2022-10-16T04:45:48;2.90;;;1.00;;
63394;SDS011;49531;-34.520;150.798;2022-10-16T04:48:17;3.75;;;1.10;;
63394;SDS011;49531;-34.520;150.798;2022-10-16T04:50:45;6.57;;;1.17;;
63394;SDS011;49531;-34.520;150.798;2022-10-16T04:53:12;5.68;;;1.17;;
63394;SDS011;49531;-34.520;150.798;2022-10-16T04:55:40;4.65;;;1.30;;
63394;SDS011;49531;-34.520;150.798;2022-10-16T04:58:08;3.17;;;1.20;;
63394;SDS011;49531;-34.520;150.798;2022-10-16T05:00:35;3.08;;;1.00;;
63394;SDS011;49531;-34.520;150.798;2022-10-16T05:03:03;2.28;;;0.98;;
63394;SDS011;49531;-34.520;150.798;2022-10-16T05:05:33;2.50;;;1.00;;
63394;SDS011;49531;-34.520;150.798;2022-10-16T05:08:02;4.22;;;0.93;;
63394;SDS011;49531;-34.520;150.798;2022-10-16T05:10:29;4.10;;;1.00;;
63394;SDS011;49531;-34.520;150.798;2022-10-16T05:12:57;2.80;;;1.00;;
63394;SDS011;49531;-34.520;150.798;2022-10-16T05:15:24;4.65;;;1.00;;
63394;SDS011;49531;-34.520;150.798;2022-10-16T05:17:54;2.67;;;1.00;;
63394;SDS011;49531;-34.520;150.798;2022-10-16T05:20:22;4.50;;;0.98;;
63394;SDS011;49531;-34.520;150.798;2022-10-16T05:22:49;2.53;;;0.93;;
63394;SDS011;49531;-34.520;150.798;2022-10-16T05:25:17;2.50;;;1.00;;
63394;SDS011;49531;-34.520;150.798;2022-10-16T05:27:46;2.20;;;0.90;;
63394;SDS011;49531;-34.520;150.798;2022-10-16T05:30:15;1.13;;;0.80;;
63394;SDS011;49531;-34.520;150.798;2022-10-16T05:32:49;2.17;;;0.82;;
63394;SDS011;49531;-34.520;150.798;2022-10-16T05:35:17;5.75;;;0.90;;
63394;SDS011;49531;-34.520;150.798;2022-10-16T05:37:46;2.05;;;0.85;;
63394;SDS011;49531;-34.520;150.798;2022-10-16T05:40:13;4.03;;;1.23;;
63394;SDS011;49531;-34.520;150.798;2022-10-16T05:42:42;1.85;;;1.05;;
63394;SDS011;49531;-34.520;150.798;2022-10-16T05:45:09;4.07;;;1.02;;
63394;SDS011;49531;-34.520;150.798;2022-10-16T05:47:37;2.78;;;0.77;;
63394;SDS011;49531;-34.520;150.798;2022-10-16T05:50:05;2.25;;;0.98;;
63394;SDS011;49531;-34.520;150.798;2022-10-16T05:52:32;2.40;;;1.00;;
63394;SDS011;49531;-34.520;150.798;2022-10-16T05:54:59;3.55;;;1.10;;
63394;SDS011;49531;-34.520;150.798;2022-10-16T05:57:27;2.58;;;1.10;;
63394;SDS011;49531;-34.520;150.798;2022-10-16T05:59:54;1.65;;;0.95;;
63394;SDS011;49531;-34.520;150.798;2022-10-16T06:02:21;2.90;;;0.90;;
63394;SDS011;49531;-34.520;150.798;2022-10-16T06:04:48;4.47;;;0.90;;
63394;SDS011;49531;-34.520;150.798;2022-10-16T06:07:19;1.90;;;0.90;;
63394;SDS011;49531;-34.520;150.798;2022-10-16T06:09:50;3.22;;;1.00;;
63394;SDS011;49531;-34.520;150.798;2022-10-16T06:12:18;2.50;;;1.10;;
63394;SDS011;49531;-34.520;150.798;2022-10-16T06:14:46;2.10;;;0.90;;
63394;SDS011;49531;-34.520;150.798;2022-10-16T06:17:13;3.08;;;1.00;;
63394;SDS011;49531;-34.520;150.798;2022-10-16T06:19:40;4.88;;;1.20;;
63394;SDS011;49531;-34.520;150.798;2022-10-16T06:22:07;4.60;;;1.20;;
63394;SDS011;49531;-34.520;150.798;2022-10-16T06:24:34;4.05;;;1.13;;
63394;SDS011;49531;-34.520;150.798;2022-10-16T06:27:03;3.28;;;1.00;;
63394;SDS011;49531;-34.520;150.798;2022-10-16T06:29:30;2.65;;;1.00;;
63394;SDS011;49531;-34.520;150.798;2022-10-16T06:31:57;4.35;;;1.20;;
63394;SDS011;49531;-34.520;150.798;2022-10-16T06:34:25;4.78;;;1.27;;
63394;SDS011;49531;-34.520;150.798;2022-10-16T06:36:52;3.90;;;1.10;;
63394;SDS011;49531;-34.520;150.798;2022-10-16T06:39:19;4.28;;;1.67;;
63394;SDS011;49531;-34.520;150.798;2022-10-16T06:41:46;4.75;;;1.10;;
63394;SDS011;49531;-34.520;150.798;2022-10-16T06:44:13;3.55;;;1.23;;
63394;SDS011;49531;-34.520;150.798;2022-10-16T06:46:40;2.95;;;1.17;;
63394;SDS011;49531;-34.520;150.798;2022-10-16T06:49:07;4.70;;;1.20;;
63394;SDS011;49531;-34.520;150.798;2022-10-16T06:51:34;3.40;;;1.13;;
63394;SDS011;49531;-34.520;150.798;2022-10-16T06:54:06;8.95;;;1.52;;
63394;SDS011;49531;-34.520;150.798;2022-10-16T06:56:33;2.50;;;1.13;;
63394;SDS011;49531;-34.520;150.798;2022-10-16T06:59:01;6.10;;;1.80;;
63394;SDS011;49531;-34.520;150.798;2022-10-16T07:01:29;4.40;;;1.10;;
63394;SDS011;49531;-34.520;150.798;2022-10-16T07:03:56;4.75;;;1.10;;
63394;SDS011;49531;-34.520;150.798;2022-10-16T07:06:24;9.32;;;1.63;;
63394;SDS011;49531;-34.520;150.798;2022-10-16T07:08:52;10.75;;;1.80;;
63394;SDS011;49531;-34.520;150.798;2022-10-16T07:11:20;6.07;;;1.50;;
63394;SDS011;49531;-34.520;150.798;2022-10-16T07:13:48;12.05;;;1.58;;
63394;SDS011;49531;-34.520;150.798;2022-10-16T07:16:18;6.90;;;1.38;;
63394;SDS011;49531;-34.520;150.798;2022-10-16T07:18:47;5.38;;;1.40;;
63394;SDS011;49531;-34.520;150.798;2022-10-16T07:21:16;5.78;;;1.52;;
63394;SDS011;49531;-34.520;150.798;2022-10-16T07:23:50;4.53;;;1.27;;
63394;SDS011;49531;-34.520;150.798;2022-10-16T07:26:17;6.22;;;1.40;;
63394;SDS011;49531;-34.520;150.798;2022-10-16T07:28:45;5.68;;;1.48;;
63394;SDS011;49531;-34.520;150.798;2022-10-16T07:31:15;3.22;;;1.30;;
63394;SDS011;49531;-34.520;150.798;2022-10-16T07:33:43;3.20;;;1.23;;
63394;SDS011;49531;-34.520;150.798;2022-10-16T07:36:14;4.28;;;1.10;;
63394;SDS011;49531;-34.520;150.798;2022-10-16T07:38:43;3.20;;;1.20;;
63394;SDS011;49531;-34.520;150.798;2022-10-16T07:41:12;5.57;;;1.23;;
63394;SDS011;49531;-34.520;150.798;2022-10-16T07:43:45;2.80;;;1.20;;
63394;SDS011;49531;-34.520;150.798;2022-10-16T07:46:13;3.35;;;1.15;;
63394;SDS011;49531;-34.520;150.798;2022-10-16T07:48:42;6.55;;;2.00;;
63394;SDS011;49531;-34.520;150.798;2022-10-16T07:51:13;4.53;;;1.85;;
63394;SDS011;49531;-34.520;150.798;2022-10-16T07:53:42;6.85;;;2.22;;
63394;SDS011;49531;-34.520;150.798;2022-10-16T07:56:09;9.52;;;2.85;;
63394;SDS011;49531;-34.520;150.798;2022-10-16T07:58:37;8.10;;;3.58;;
63394;SDS011;49531;-34.520;150.798;2022-10-16T08:01:05;11.88;;;4.60;;
63394;SDS011;49531;-34.520;150.798;2022-10-16T08:03:34;11.60;;;4.38;;
63394;SDS011;49531;-34.520;150.798;2022-10-16T08:06:02;14.93;;;4.10;;
63394;SDS011;49531;-34.520;150.798;2022-10-16T08:08:30;16.02;;;4.55;;
63394;SDS011;49531;-34.520;150.798;2022-10-16T08:10:57;14.25;;;4.80;;
63394;SDS011;49531;-34.520;150.798;2022-10-16T08:13:25;12.85;;;4.03;;
63394;SDS011;49531;-34.520;150.798;2022-10-16T08:15:53;10.60;;;4.18;;
63394;SDS011;49531;-34.520;150.798;2022-10-16T08:18:21;12.00;;;4.28;;
63394;SDS011;49531;-34.520;150.798;2022-10-16T08:20:54;14.45;;;4.35;;
63394;SDS011;49531;-34.520;150.798;2022-10-16T08:23:23;9.77;;;3.95;;
63394;SDS011;49531;-34.520;150.798;2022-10-16T08:25:52;10.93;;;4.03;;
63394;SDS011;49531;-34.520;150.798;2022-10-16T08:28:20;11.13;;;4.25;;
63394;SDS011;49531;-34.520;150.798;2022-10-16T08:30:47;13.20;;;3.88;;
63394;SDS011;49531;-34.520;150.798;2022-10-16T08:33:15;15.45;;;4.60;;
63394;SDS011;49531;-34.520;150.798;2022-10-16T08:35:42;13.90;;;3.85;;
63394;SDS011;49531;-34.520;150.798;2022-10-16T08:38:16;12.90;;;3.72;;
63394;SDS011;49531;-34.520;150.798;2022-10-16T08:40:43;12.48;;;3.88;;
63394;SDS011;49531;-34.520;150.798;2022-10-16T08:43:16;9.70;;;3.40;;
63394;SDS011;49531;-34.520;150.798;2022-10-16T08:46:10;11.68;;;3.08;;
63394;SDS011;49531;-34.520;150.798;2022-10-16T08:49:00;8.97;;;3.27;;
63394;SDS011;49531;-34.520;150.798;2022-10-16T08:51:30;8.25;;;2.70;;
63394;SDS011;49531;-34.520;150.798;2022-10-16T08:54:05;9.43;;;3.10;;
63394;SDS011;49531;-34.520;150.798;2022-10-16T08:56:44;11.07;;;2.72;;
63394;SDS011;49531;-34.520;150.798;2022-10-16T08:59:11;6.45;;;2.50;;
63394;SDS011;49531;-34.520;150.798;2022-10-16T09:01:44;6.38;;;2.67;;
63394;SDS011;49531;-34.520;150.798;2022-10-16T09:10:05;6.32;;;2.53;;
63394;SDS011;49531;-34.520;150.798;2022-10-16T09:12:53;9.68;;;2.63;;
63394;SDS011;49531;-34.520;150.798;2022-10-16T09:15:39;6.55;;;2.42;;
63394;SDS011;49531;-34.520;150.798;2022-10-16T09:18:25;7.22;;;2.38;;
63394;SDS011;49531;-34.520;150.798;2022-10-16T09:23:52;6.07;;;2.15;;
63394;SDS011;49531;-34.520;150.798;2022-10-16T09:26:23;5.13;;;2.30;;
63394;SDS011;49531;-34.520;150.798;2022-10-16T09:28:51;7.13;;;2.25;;
63394;SDS011;49531;-34.520;150.798;2022-10-16T09:31:20;4.82;;;2.00;;
63394;SDS011;49531;-34.520;150.798;2022-10-16T09:33:51;5.97;;;2.10;;
63394;SDS011;49531;-34.520;150.798;2022-10-16T09:36:21;8.65;;;2.55;;
63394;SDS011;49531;-34.520;150.798;2022-10-16T09:39:01;5.55;;;2.40;;
63394;SDS011;49531;-34.520;150.798;2022-10-16T09:41:33;5.35;;;2.42;;
63394;SDS011;49531;-34.520;150.798;2022-10-16T09:44:03;8.63;;;2.33;;
63394;SDS011;49531;-34.520;150.798;2022-10-16T09:46:42;7.72;;;2.58;;
63394;SDS011;49531;-34.520;150.798;2022-10-16T09:49:29;5.93;;;2.00;;
63394;SDS011;49531;-34.520;150.798;2022-10-16T09:52:04;5.10;;;2.30;;
63394;SDS011;49531;-34.520;150.798;2022-10-16T09:54:48;6.70;;;2.45;;
63394;SDS011;49531;-34.520;150.798;2022-10-16T09:57:18;5.68;;;2.40;;
63394;SDS011;49531;-34.520;150.798;2022-10-16T09:59:47;5.10;;;2.30;;
63394;SDS011;49531;-34.520;150.798;2022-10-16T10:02:16;5.05;;;2.47;;
63394;SDS011;49531;-34.520;150.798;2022-10-16T10:04:48;6.07;;;2.42;;
63394;SDS011;49531;-34.520;150.798;2022-10-16T10:07:23;6.43;;;2.47;;
63394;SDS011;49531;-34.520;150.798;2022-10-16T10:10:02;6.78;;;2.20;;
63394;SDS011;49531;-34.520;150.798;2022-10-16T10:12:31;6.72;;;2.20;;
63394;SDS011;49531;-34.520;150.798;2022-10-16T10:15:09;6.47;;;2.00;;
63394;SDS011;49531;-34.520;150.798;2022-10-16T10:17:45;6.28;;;2.22;;
63394;SDS011;49531;-34.520;150.798;2022-10-16T10:20:22;6.13;;;2.08;;
63394;SDS011;49531;-34.520;150.798;2022-10-16T10:22:53;4.22;;;1.95;;
63394;SDS011;49531;-34.520;150.798;2022-10-16T10:25:26;5.85;;;1.90;;
63394;SDS011;49531;-34.520;150.798;2022-10-16T10:28:17;4.45;;;1.90;;
63394;SDS011;49531;-34.520;150.798;2022-10-16T10:34:04;6.05;;;2.08;;
63394;SDS011;49531;-34.520;150.798;2022-10-16T10:36:52;6.30;;;1.90;;
63394;SDS011;49531;-34.520;150.798;2022-10-16T10:39:34;4.15;;;1.90;;
63394;SDS011;49531;-34.520;150.798;2022-10-16T10:42:22;5.28;;;1.88;;
63394;SDS011;49531;-34.520;150.798;2022-10-16T10:45:06;4.00;;;1.83;;
63394;SDS011;49531;-34.520;150.798;2022-10-16T10:50:29;3.45;;;1.55;;
63394;SDS011;49531;-34.520;150.798;2022-10-16T10:53:21;3.58;;;1.55;;
63394;SDS011;49531;-34.520;150.798;2022-10-16T10:56:07;3.30;;;1.40;;
63394;SDS011;49531;-34.520;150.798;2022-10-16T11:02:00;3.05;;;1.30;;
63394;SDS011;49531;-34.520;150.798;2022-10-16T11:05:02;4.35;;;1.52;;
63394;SDS011;49531;-34.520;150.798;2022-10-16T11:07:45;2.40;;;1.30;;
63394;SDS011;49531;-34.520;150.798;2022-10-16T11:10:21;3.65;;;1.33;;
63394;SDS011;49531;-34.520;150.798;2022-10-16T11:12:57;1.67;;;1.10;;
63394;SDS011;49531;-34.520;150.798;2022-10-16T11:15:37;3.47;;;1.42;;
63394;SDS011;49531;-34.520;150.798;2022-10-16T11:18:11;2.75;;;1.40;;
63394;SDS011;49531;-34.520;150.798;2022-10-16T11:20:49;2.95;;;1.25;;
63394;SDS011;49531;-34.520;150.798;2022-10-16T11:23:25;7.15;;;2.22;;
63394;SDS011;49531;-34.520;150.798;2022-10-16T11:26:06;2.08;;;1.13;;
63394;SDS011;49531;-34.520;150.798;2022-10-16T11:28:45;3.47;;;1.30;;
63394;SDS011;49531;-34.520;150.798;2022-10-16T11:31:37;2.80;;;1.20;;
63394;SDS011;49531;-34.520;150.798;2022-10-16T11:34:22;2.50;;;1.20;;
63394;SDS011;49531;-34.520;150.798;2022-10-16T11:36:58;3.17;;;1.20;;
63394;SDS011;49531;-34.520;150.798;2022-10-16T11:39:35;2.55;;;1.35;;
63394;SDS011;49531;-34.520;150.798;2022-10-16T11:44:56;2.58;;;1.20;;
63394;SDS011;49531;-34.520;150.798;2022-10-16T11:47:42;3.67;;;1.20;;
63394;SDS011;49531;-34.520;150.798;2022-10-16T11:50:25;3.90;;;1.17;;
63394;SDS011;49531;-34.520;150.798;2022-10-16T11:53:04;2.42;;;1.10;;
63394;SDS011;49531;-34.520;150.798;2022-10-16T11:55:54;2.80;;;1.10;;
63394;SDS011;49531;-34.520;150.798;2022-10-16T11:58:31;2.63;;;1.15;;
63394;SDS011;49531;-34.520;150.798;2022-10-16T12:01:16;1.92;;;1.00;;
63394;SDS011;49531;-34.520;150.798;2022-10-16T12:03:59;3.88;;;1.15;;
63394;SDS011;49531;-34.520;150.798;2022-10-16T12:06:41;1.70;;;1.00;;
63394;SDS011;49531;-34.520;150.798;2022-10-16T12:09:20;2.08;;;0.90;;
63394;SDS011;49531;-34.520;150.798;2022-10-16T12:11:52;2.53;;;1.20;;
63394;SDS011;49531;-34.520;150.798;2022-10-16T12:14:21;2.53;;;1.10;;
63394;SDS011;49531;-34.520;150.798;2022-10-16T12:19:57;3.45;;;1.23;;
63394;SDS011;49531;-34.520;150.798;2022-10-16T12:22:29;2.67;;;1.00;;
63394;SDS011;49531;-34.520;150.798;2022-10-16T12:24:57;2.13;;;1.20;;
63394;SDS011;49531;-34.520;150.798;2022-10-16T12:27:29;2.22;;;0.90;;
63394;SDS011;49531;-34.520;150.798;2022-10-16T12:29:59;2.80;;;1.08;;
63394;SDS011;49531;-34.520;150.798;2022-10-16T12:32:29;2.10;;;0.98;;
63394;SDS011;49531;-34.520;150.798;2022-10-16T12:34:59;1.73;;;1.10;;
63394;SDS011;49531;-34.520;150.798;2022-10-16T12:37:31;2.55;;;1.02;;
63394;SDS011;49531;-34.520;150.798;2022-10-16T12:40:11;2.50;;;1.02;;
63394;SDS011;49531;-34.520;150.798;2022-10-16T12:42:50;2.20;;;1.00;;
63394;SDS011;49531;-34.520;150.798;2022-10-16T12:45:23;2.72;;;0.88;;
63394;SDS011;49531;-34.520;150.798;2022-10-16T12:47:53;1.58;;;0.90;;
63394;SDS011;49531;-34.520;150.798;2022-10-16T12:50:23;1.33;;;0.90;;
63394;SDS011;49531;-34.520;150.798;2022-10-16T12:52:59;2.72;;;0.90;;
63394;SDS011;49531;-34.520;150.798;2022-10-16T12:55:31;2.08;;;1.00;;
63394;SDS011;49531;-34.520;150.798;2022-10-16T12:58:15;1.35;;;0.95;;
63394;SDS011;49531;-34.520;150.798;2022-10-16T13:01:04;3.55;;;1.00;;
63394;SDS011;49531;-34.520;150.798;2022-10-16T13:03:46;2.00;;;1.00;;
63394;SDS011;49531;-34.520;150.798;2022-10-16T13:06:46;3.22;;;0.93;;
63394;SDS011;49531;-34.520;150.798;2022-10-16T13:12:45;3.20;;;1.00;;
63394;SDS011;49531;-34.520;150.798;2022-10-16T13:15:40;2.75;;;0.82;;
63394;SDS011;49531;-34.520;150.798;2022-10-16T13:18:27;1.25;;;0.90;;
63394;SDS011;49531;-34.520;150.798;2022-10-16T13:21:10;2.00;;;0.90;;
63394;SDS011;49531;-34.520;150.798;2022-10-16T13:24:02;3.03;;;1.10;;
63394;SDS011;49531;-34.520;150.798;2022-10-16T13:26:54;3.53;;;1.00;;
63394;SDS011;49531;-34.520;150.798;2022-10-16T13:29:36;2.58;;;0.90;;
63394;SDS011;49531;-34.520;150.798;2022-10-16T13:32:07;2.38;;;0.80;;
63394;SDS011;49531;-34.520;150.798;2022-10-16T13:34:45;1.38;;;0.80;;
63394;SDS011;49531;-34.520;150.798;2022-10-16T13:37:17;2.30;;;0.88;;
63394;SDS011;49531;-34.520;150.798;2022-10-16T13:39:46;2.92;;;1.20;;
63394;SDS011;49531;-34.520;150.798;2022-10-16T13:42:23;2.15;;;0.80;;
63394;SDS011;49531;-34.520;150.798;2022-10-16T13:44:53;2.35;;;0.90;;
63394;SDS011;49531;-34.520;150.798;2022-10-16T13:47:24;2.10;;;0.90;;
63394;SDS011;49531;-34.520;150.798;2022-10-16T13:50:01;3.17;;;0.80;;
63394;SDS011;49531;-34.520;150.798;2022-10-16T13:52:32;2.05;;;0.90;;
63394;SDS011;49531;-34.520;150.798;2022-10-16T13:54:59;3.15;;;1.00;;
63394;SDS011;49531;-34.520;150.798;2022-10-16T13:57:26;3.05;;;1.10;;
63394;SDS011;49531;-34.520;150.798;2022-10-16T13:59:54;2.13;;;0.90;;
63394;SDS011;49531;-34.520;150.798;2022-10-16T14:02:37;2.92;;;0.90;;
63394;SDS011;49531;-34.520;150.798;2022-10-16T14:05:08;3.08;;;0.80;;
63394;SDS011;49531;-34.520;150.798;2022-10-16T14:07:38;2.47;;;0.90;;
63394;SDS011;49531;-34.520;150.798;2022-10-16T14:10:07;2.22;;;0.90;;
63394;SDS011;49531;-34.520;150.798;2022-10-16T14:12:57;3.03;;;1.00;;
63394;SDS011;49531;-34.520;150.798;2022-10-16T14:15:27;2.35;;;0.90;;
63394;SDS011;49531;-34.520;150.798;2022-10-16T14:17:58;2.42;;;0.90;;
63394;SDS011;49531;-34.520;150.798;2022-10-16T14:20:27;2.28;;;0.90;;
63394;SDS011;49531;-34.520;150.798;2022-10-16T14:23:03;2.33;;;0.80;;
63394;SDS011;49531;-34.520;150.798;2022-10-16T14:25:45;4.53;;;1.17;;
63394;SDS011;49531;-34.520;150.798;2022-10-16T14:28:15;2.60;;;1.02;;
63394;SDS011;49531;-34.520;150.798;2022-10-16T14:30:52;1.00;;;0.80;;
63394;SDS011;49531;-34.520;150.798;2022-10-16T14:33:23;1.73;;;0.95;;
63394;SDS011;49531;-34.520;150.798;2022-10-16T14:36:04;2.17;;;1.00;;
63394;SDS011;49531;-34.520;150.798;2022-10-16T14:38:40;2.08;;;0.93;;
63394;SDS011;49531;-34.520;150.798;2022-10-16T14:41:14;1.20;;;0.80;;
63394;SDS011;49531;-34.520;150.798;2022-10-16T14:43:42;1.75;;;1.00;;
63394;SDS011;49531;-34.520;150.798;2022-10-16T14:46:14;1.48;;;0.95;;
63394;SDS011;49531;-34.520;150.798;2022-10-16T14:48:45;2.53;;;1.00;;
63394;SDS011;49531;-34.520;150.798;2022-10-16T14:51:15;1.88;;;0.80;;
63394;SDS011;49531;-34.520;150.798;2022-10-16T14:53:44;1.88;;;0.90;;
63394;SDS011;49531;-34.520;150.798;2022-10-16T14:56:15;3.97;;;1.20;;
63394;SDS011;49531;-34.520;150.798;2022-10-16T14:58:45;1.75;;;1.10;;
63394;SDS011;49531;-34.520;150.798;2022-10-16T15:01:13;2.15;;;1.10;;
63394;SDS011;49531;-34.520;150.798;2022-10-16T15:03:40;3.03;;;1.00;;
63394;SDS011;49531;-34.520;150.798;2022-10-16T15:06:11;1.50;;;1.10;;
63394;SDS011;49531;-34.520;150.798;2022-10-16T15:08:39;2.28;;;1.00;;
63394;SDS011;49531;-34.520;150.798;2022-10-16T15:11:10;2.25;;;1.02;;